Time;durP1;ratioP1;P1;durP2;ratioP2;P2;SDS_P1;SDS_P2;PMS_P1;PMS_P2;Temp;Humidity;BMP_temperature;BMP_pressure;BME280_temperature;BME280_humidity;BME280_pressure;Samples;Min_cycle;Max_cycle;Signal;HPM_P1;HPM_P2
2021/04/11 00:08:55;;;;;;;0.20;0.00;;;9.80;99.90;;;;;;20635159;28;20273;-78
2021/04/11 00:18:58;;;;;;;0.20;0.10;;;9.90;99.90;;;;;;20650200;28;20203;-76
2021/04/11 00:29:05;;;;;;;0.63;0.63;;;9.80;99.90;;;;;;20649753;28;20314;-77
2021/04/11 00:39:10;;;;;;;0.20;0.20;;;9.80;99.90;;;;;;20677910;28;20230;-77
2021/04/11 00:49:22;;;;;;;1.37;1.33;;;9.80;99.90;;;;;;20733342;28;20765;-77
2021/04/11 00:59:28;;;;;;;0.50;0.50;;;9.80;99.90;;;;;;20716296;28;20232;-79
2021/04/11 01:09:35;;;;;;;0.40;0.37;;;9.70;99.90;;;;;;20736252;28;20249;-78
2021/04/11 01:19:40;;;;;;;0.20;0.13;;;9.70;99.90;;;;;;20749021;28;20597;-77
2021/04/11 01:29:48;;;;;;;0.77;0.73;;;9.70;99.90;;;;;;20748612;28;20237;-78
2021/04/11 01:39:52;;;;;;;3.07;0.77;;;9.80;99.90;;;;;;20665726;28;20207;-80
2021/04/11 01:49:58;;;;;;;2.00;1.23;;;10.00;99.90;;;;;;20662494;28;20677;-79
2021/04/11 02:00:11;;;;;;;0.80;0.80;;;10.10;99.90;;;;;;20663935;28;20200;-81
2021/04/11 02:10:17;;;;;;;0.73;0.73;;;10.30;99.90;;;;;;20663712;28;20731;-81
2021/04/11 02:20:21;;;;;;;0.80;0.80;;;10.50;99.90;;;;;;20628089;28;20286;-79
2021/04/11 02:30:26;;;;;;;1.43;1.27;;;10.70;99.90;;;;;;20640010;28;20254;-83
2021/04/11 02:40:34;;;;;;;0.70;0.70;;;10.90;99.90;;;;;;20600804;28;20616;-84
2021/04/11 02:50:40;;;;;;;1.40;0.67;;;11.10;99.90;;;;;;20656224;28;20269;-83
2021/04/11 03:00:49;;;;;;;1.07;1.00;;;11.30;99.90;;;;;;20631813;28;20199;-82
2021/04/11 03:11:02;;;;;;;0.20;0.10;;;11.50;99.90;;;;;;20653911;28;20223;-81
2021/04/11 03:21:07;;;;;;;3.03;1.33;;;11.80;99.90;;;;;;20612011;28;722412;-83
2021/04/11 03:31:17;;;;;;;2.53;1.47;;;12.00;99.90;;;;;;20643289;23;20239;-82
2021/04/11 03:41:20;;;;;;;7.63;3.17;;;12.10;99.90;;;;;;20700303;28;20191;-83
2021/04/11 03:51:27;;;;;;;6.83;1.77;;;12.00;99.90;;;;;;20737372;28;20309;-82
2021/04/11 04:01:42;;;;;;;3.00;0.97;;;11.90;99.90;;;;;;20737237;28;20295;-82
2021/04/11 04:12:02;;;;;;;2.57;1.00;;;12.10;99.90;;;;;;20717846;28;20725;-82
2021/04/11 04:22:32;;;;;;;0.40;0.40;;;12.10;99.90;;;;;;20734696;28;20276;-80
2021/04/11 04:32:49;;;;;;;0.73;0.47;;;12.10;99.90;;;;;;20734214;28;20330;-82
2021/04/11 04:42:57;;;;;;;0.50;0.43;;;12.00;99.90;;;;;;20659566;28;20205;-82
2021/04/11 04:53:10;;;;;;;1.70;1.43;;;12.20;99.90;;;;;;20619433;28;20306;-79
2021/04/11 05:03:15;;;;;;;5.93;2.93;;;12.40;99.90;;;;;;20652798;28;20221;-81
2021/04/11 05:13:22;;;;;;;1.07;1.03;;;12.40;99.90;;;;;;20644328;23;20739;-84
2021/04/11 05:23:28;;;;;;;0.47;0.47;;;12.50;99.90;;;;;;20666167;28;20215;-84
2021/04/11 05:33:35;;;;;;;0.90;0.90;;;12.50;99.90;;;;;;20652119;28;20622;-86
2021/04/11 05:43:44;;;;;;;0.50;0.40;;;12.40;99.90;;;;;;20697520;28;20228;-80
2021/04/11 05:53:51;;;;;;;0.70;0.50;;;12.50;99.90;;;;;;20730847;28;20703;-81
2021/04/11 06:04:07;;;;;;;0.20;0.10;;;12.50;99.90;;;;;;20745007;28;20232;-80
2021/04/11 06:14:16;;;;;;;0.87;0.53;;;12.70;99.90;;;;;;20709895;28;20238;-80
2021/04/11 06:24:29;;;;;;;4.23;2.40;;;13.00;99.90;;;;;;20744573;28;20198;-80
2021/04/11 06:35:01;;;;;;;0.20;0.10;;;13.40;99.90;;;;;;20737589;23;20243;-80
2021/04/11 06:45:12;;;;;;;4.27;1.27;;;13.40;99.90;;;;;;21215901;22;20239;-81
2021/04/11 06:55:29;;;;;;;0.30;0.30;;;13.40;99.90;;;;;;20659928;28;20205;-81
2021/04/11 07:06:18;;;;;;;2.57;1.20;;;13.50;99.90;;;;;;20659752;28;20329;-83
2021/04/11 07:17:09;;;;;;;0.20;0.10;;;13.70;99.90;;;;;;20659034;28;20191;-82
2021/04/11 07:27:26;;;;;;;2.77;1.17;;;14.10;99.90;;;;;;20570739;28;20684;-83
2021/04/11 07:37:40;;;;;;;0.40;0.33;;;14.40;99.90;;;;;;20583482;28;20199;-83
2021/04/11 07:47:56;;;;;;;0.93;0.60;;;14.70;99.90;;;;;;20638256;28;20227;-82
2021/04/11 07:58:16;;;;;;;0.80;0.40;;;14.70;99.90;;;;;;20657453;28;20187;-85
2021/04/11 08:08:32;;;;;;;0.40;0.40;;;14.60;99.90;;;;;;20640880;28;20227;-85
2021/04/11 08:19:03;;;;;;;0.30;0.30;;;14.90;99.90;;;;;;20640702;28;20198;-85
2021/04/11 08:29:58;;;;;;;12.93;0.77;;;15.40;99.90;;;;;;20661382;23;20278;-81
2021/04/11 08:40:23;;;;;;;0.20;0.10;;;15.40;99.90;;;;;;20435280;29;20295;-77
2021/04/11 08:50:34;;;;;;;2.60;1.07;;;15.80;99.90;;;;;;20438108;29;20755;-79
2021/04/11 09:01:04;;;;;;;2.93;0.37;;;16.20;99.90;;;;;;20370192;29;20640;-78
2021/04/11 09:11:18;;;;;;;0.30;0.20;;;15.80;99.90;;;;;;20618113;28;20301;-76
2021/04/11 09:21:37;;;;;;;0.63;0.63;;;15.50;99.90;;;;;;20651268;28;20199;-74
2021/04/11 09:32:02;;;;;;;4.47;1.57;;;15.80;99.90;;;;;;20651553;28;20442;-79
2021/04/11 09:42:28;;;;;;;0.50;0.50;;;15.80;99.90;;;;;;20664673;28;20234;-77
2021/04/11 09:53:23;;;;;;;1.20;1.20;;;15.50;99.90;;;;;;20663272;28;20234;-77
2021/04/11 10:03:39;;;;;;;12.23;1.90;;;15.10;99.90;;;;;;20653133;28;20223;-79
2021/04/11 10:14:29;;;;;;;0.20;0.10;;;15.10;99.90;;;;;;20644721;28;20254;-76
2021/04/11 10:24:44;;;;;;;1.53;1.43;;;15.40;99.90;;;;;;20587439;28;20238;-75
2021/04/11 10:35:01;;;;;;;0.77;0.53;;;16.00;99.90;;;;;;20642856;28;20285;-79
2021/04/11 10:45:19;;;;;;;0.40;0.40;;;16.70;99.90;;;;;;20736870;28;20622;-79
2021/04/11 10:55:41;;;;;;;0.30;0.30;;;15.80;99.90;;;;;;20705733;28;20203;-78
2021/04/11 11:06:10;;;;;;;21.10;0.97;;;15.90;99.90;;;;;;20739275;28;20222;-73
2021/04/11 11:27:40;;;;;;;0.20;0.07;;;17.40;99.90;;;;;;20693514;28;20259;-79
2021/04/11 11:37:54;;;;;;;0.20;0.07;;;18.30;99.90;;;;;;20616797;28;20202;-74
2021/04/11 11:48:21;;;;;;;0.50;0.50;;;17.00;99.90;;;;;;20659233;28;20215;-76
2021/04/11 11:58:29;;;;;;;0.33;0.33;;;16.40;99.90;;;;;;20653284;28;20192;-78
2021/04/11 12:08:44;;;;;;;3.10;0.67;;;16.60;99.90;;;;;;20660206;28;20627;-78
2021/04/11 12:18:59;;;;;;;0.27;0.17;;;17.50;99.90;;;;;;20630290;28;20282;-77
2021/04/11 12:29:24;;;;;;;0.20;0.10;;;16.80;99.90;;;;;;20582841;28;20290;-78
2021/04/11 12:39:29;;;;;;;0.70;0.67;;;16.00;99.90;;;;;;20707611;23;20316;-80
2021/04/11 12:49:50;;;;;;;0.33;0.33;;;16.70;99.90;;;;;;20723677;28;20224;-82
2021/04/11 12:59:58;;;;;;;1.03;0.80;;;17.10;99.90;;;;;;20649764;28;20244;-78
2021/04/11 13:10:14;;;;;;;0.70;0.30;;;17.80;99.90;;;;;;20651263;28;20231;-73
2021/04/11 13:20:23;;;;;;;2.43;0.57;;;19.30;99.90;;;;;;20623010;28;20678;-77
2021/04/11 13:30:30;;;;;;;0.20;0.00;;;18.50;99.90;;;;;;20586352;28;20596;-74
2021/04/11 13:40:36;;;;;;;0.30;0.30;;;18.70;99.90;;;;;;20700583;28;20227;-73
2021/04/11 13:50:48;;;;;;;6.80;0.50;;;18.30;99.90;;;;;;20743118;28;20230;-75
2021/04/11 14:01:00;;;;;;;0.30;0.27;;;20.90;99.90;;;;;;20744489;28;20226;-76
2021/04/11 14:11:17;;;;;;;0.57;0.30;;;21.60;99.90;;;;;;20741733;28;20289;-70
2021/04/11 14:21:27;;;;;;;0.20;0.17;;;22.30;99.90;;;;;;20738691;28;20249;-72
2021/04/11 14:31:51;;;;;;;0.73;0.40;;;21.10;99.90;;;;;;20733024;28;20199;-72
2021/04/11 14:41:56;;;;;;;0.60;0.60;;;20.20;99.90;;;;;;20683613;28;20665;-80
2021/04/11 14:52:09;;;;;;;0.80;0.80;;;19.00;99.90;;;;;;20641394;28;20200;-71
2021/04/11 15:02:23;;;;;;;0.50;0.50;;;22.00;99.90;;;;;;20639024;28;20227;-74
2021/04/11 15:12:38;;;;;;;7.00;0.60;;;22.40;99.90;;;;;;20617672;28;20215;-77
2021/04/11 15:22:54;;;;;;;0.20;0.13;;;22.20;99.90;;;;;;20636875;28;20223;-73
2021/04/11 15:33:05;;;;;;;0.57;0.20;;;22.50;99.90;;;;;;20634098;28;20599;-81
2021/04/11 15:43:17;;;;;;;0.67;0.47;;;20.60;99.90;;;;;;20662427;28;20762;-83
2021/04/11 15:53:53;;;;;;;0.40;0.23;;;18.00;99.90;;;;;;20634014;28;20191;-83
2021/04/11 16:04:29;;;;;;;0.20;0.10;;;17.20;99.90;;;;;;20519977;28;20247;-79
2021/04/11 16:14:44;;;;;;;1.83;1.20;;;16.80;99.90;;;;;;20587363;28;20229;-81
2021/04/11 16:25:15;;;;;;;0.70;0.50;;;16.40;99.90;;;;;;20650402;28;20627;-79
2021/04/11 16:36:01;;;;;;;0.57;0.57;;;16.20;99.90;;;;;;20598635;28;20351;-82
2021/04/11 16:46:17;;;;;;;0.43;0.30;;;16.10;99.90;;;;;;20575127;28;20201;-84
2021/04/11 16:56:44;;;;;;;1.13;0.93;;;16.20;99.90;;;;;;20675650;23;20566;-79
2021/04/11 17:07:57;;;;;;;1.40;0.20;;;16.10;99.90;;;;;;20628227;28;20226;-80
2021/04/11 17:18:17;;;;;;;0.20;0.00;;;16.30;99.90;;;;;;20615351;28;20215;-78
2021/04/11 17:28:52;;;;;;;3.57;0.77;;;16.40;99.90;;;;;;20566061;28;20216;-76
2021/04/11 17:39:12;;;;;;;1.17;1.10;;;15.90;99.90;;;;;;20549292;28;20251;-81
2021/04/11 17:50:13;;;;;;;0.40;0.37;;;16.10;99.90;;;;;;20548137;28;20603;-81
2021/04/11 18:00:51;;;;;;;0.90;0.83;;;15.80;99.90;;;;;;20562693;28;20729;-77
2021/04/11 18:11:58;;;;;;;;;;;;;;;;;;;;;
2021/04/11 18:22:15;;;;;;;0.20;0.07;;;15.40;99.90;;;;;;20515393;28;20233;-80
2021/04/11 18:32:50;;;;;;;0.20;0.10;;;15.30;99.90;;;;;;20639780;23;20327;-79
2021/04/11 18:43:01;;;;;;;0.53;0.30;;;15.10;99.90;;;;;;20555439;28;20223;-80
2021/04/11 18:53:43;;;;;;;0.20;0.20;;;15.30;99.90;;;;;;20577160;28;20657;-81
2021/04/11 19:04:33;;;;;;;0.20;0.20;;;15.30;99.90;;;;;;20558515;28;20228;-83
2021/04/11 19:15:27;;;;;;;1.63;0.30;;;15.00;99.90;;;;;;20578490;23;20231;-79
2021/04/11 19:37:19;;;;;;;0.30;0.30;;;14.10;99.90;;;;;;20343426;29;20233;-81
2021/04/11 19:47:58;;;;;;;0.20;0.00;;;14.10;99.90;;;;;;20489291;23;20231;-78
2021/04/11 19:58:42;;;;;;;0.20;0.00;;;13.90;99.90;;;;;;20654038;28;20226;-81
2021/04/11 20:09:39;;;;;;;0.20;0.00;;;13.60;99.90;;;;;;20402597;29;20197;-79
2021/04/11 20:20:53;;;;;;;0.20;0.03;;;13.20;99.90;;;;;;20347499;29;20440;-77
2021/04/11 20:31:18;;;;;;;0.20;0.00;;;12.90;99.90;;;;;;20156765;28;20254;-74
2021/04/11 20:41:45;;;;;;;0.20;0.10;;;12.50;99.90;;;;;;20691006;28;20332;-75
2021/04/11 20:52:26;;;;;;;0.20;0.10;;;12.60;99.90;;;;;;20667945;28;20227;-75
2021/04/11 21:03:00;;;;;;;0.20;0.10;;;12.50;99.90;;;;;;20651655;28;20242;-73
2021/04/11 21:13:58;;;;;;;0.20;0.10;;;12.60;99.90;;;;;;20650994;28;20188;-74
2021/04/11 21:24:15;;;;;;;0.20;0.10;;;12.50;99.90;;;;;;20323216;29;20238;-74
2021/04/11 21:34:35;;;;;;;0.50;0.50;;;12.60;99.90;;;;;;20321702;29;20214;-72
2021/04/11 21:44:40;;;;;;;0.20;0.10;;;12.30;99.90;;;;;;20390799;29;20826;-73
2021/04/11 21:54:47;;;;;;;0.27;0.23;;;12.40;99.90;;;;;;20495650;28;20226;-75
2021/04/11 22:05:07;;;;;;;0.20;0.10;;;12.20;99.90;;;;;;20728339;28;20219;-75
2021/04/11 22:15:14;;;;;;;0.20;0.10;;;12.20;99.90;;;;;;20691702;28;20196;-75
2021/04/11 22:25:28;;;;;;;0.20;0.10;;;12.10;99.90;;;;;;20646158;28;20595;-72
2021/04/11 22:35:44;;;;;;;0.20;0.10;;;12.30;99.90;;;;;;20643955;28;20755;-72
2021/04/11 22:57:29;;;;;;;0.20;0.00;;;12.20;99.90;;;;;;20687163;28;20676;-76
2021/04/11 23:18:34;;;;;;;0.20;0.00;;;12.30;99.90;;;;;;20576557;28;20684;-76
2021/04/11 23:28:55;;;;;;;0.20;0.03;;;12.20;99.90;;;;;;21394105;23;20237;-76
2021/04/11 23:39:08;;;;;;;0.20;0.10;;;11.80;99.90;;;;;;20743456;23;20309;-75
2021/04/11 23:49:21;;;;;;;0.20;0.10;;;11.60;99.90;;;;;;20738190;28;20233;-75
2021/04/11 23:59:29;;;;;;;0.20;0.10;;;11.50;99.90;;;;;;20738204;28;20302;-77
